sensor_id;sensor_type;location;lat;lon;timestamp;P1;durP1;ratioP1;P2;durP2;ratioP2
3718;SDS011;1875;52.492;6.860;2024-03-25T00:01:24;9.13;;;3.10;;
3718;SDS011;1875;52.492;6.860;2024-03-25T00:03:50;10.10;;;3.08;;
3718;SDS011;1875;52.492;6.860;2024-03-25T00:06:17;23.63;;;2.55;;
3718;SDS011;1875;52.492;6.860;2024-03-25T00:08:43;10.10;;;1.88;;
3718;SDS011;1875;52.492;6.860;2024-03-25T00:11:11;16.52;;;2.92;;
3718;SDS011;1875;52.492;6.860;2024-03-25T00:13:37;21.45;;;3.65;;
3718;SDS011;1875;52.492;6.860;2024-03-25T00:16:04;14.60;;;2.42;;
3718;SDS011;1875;52.492;6.860;2024-03-25T00:18:31;15.13;;;3.42;;
3718;SDS011;1875;52.492;6.860;2024-03-25T00:20:58;20.15;;;3.58;;
3718;SDS011;1875;52.492;6.860;2024-03-25T00:23:24;14.18;;;3.03;;
3718;SDS011;1875;52.492;6.860;2024-03-25T00:25:51;17.45;;;3.35;;
3718;SDS011;1875;52.492;6.860;2024-03-25T00:28:18;16.15;;;3.42;;
3718;SDS011;1875;52.492;6.860;2024-03-25T00:30:45;13.20;;;2.47;;
3718;SDS011;1875;52.492;6.860;2024-03-25T00:33:11;16.60;;;3.10;;
3718;SDS011;1875;52.492;6.860;2024-03-25T00:35:38;15.70;;;3.38;;
3718;SDS011;1875;52.492;6.860;2024-03-25T00:38:04;16.80;;;2.50;;
3718;SDS011;1875;52.492;6.860;2024-03-25T00:40:32;12.98;;;3.42;;
3718;SDS011;1875;52.492;6.860;2024-03-25T00:42:59;10.93;;;2.83;;
3718;SDS011;1875;52.492;6.860;2024-03-25T00:45:27;13.85;;;2.97;;
3718;SDS011;1875;52.492;6.860;2024-03-25T00:47:56;14.98;;;2.72;;
3718;SDS011;1875;52.492;6.860;2024-03-25T00:50:22;13.32;;;2.80;;
3718;SDS011;1875;52.492;6.860;2024-03-25T00:52:48;10.98;;;2.58;;
3718;SDS011;1875;52.492;6.860;2024-03-25T00:55:15;11.52;;;3.42;;
3718;SDS011;1875;52.492;6.860;2024-03-25T00:57:41;14.43;;;2.38;;
3718;SDS011;1875;52.492;6.860;2024-03-25T01:00:09;19.15;;;4.80;;
3718;SDS011;1875;52.492;6.860;2024-03-25T01:02:37;15.95;;;2.72;;
3718;SDS011;1875;52.492;6.860;2024-03-25T01:05:04;21.10;;;2.90;;
3718;SDS011;1875;52.492;6.860;2024-03-25T01:07:31;12.80;;;3.47;;
3718;SDS011;1875;52.492;6.860;2024-03-25T01:09:58;9.48;;;2.38;;
3718;SDS011;1875;52.492;6.860;2024-03-25T01:12:24;12.70;;;2.80;;
3718;SDS011;1875;52.492;6.860;2024-03-25T01:14:51;14.60;;;2.65;;
3718;SDS011;1875;52.492;6.860;2024-03-25T01:17:17;18.27;;;3.85;;
3718;SDS011;1875;52.492;6.860;2024-03-25T01:19:45;21.23;;;4.22;;
3718;SDS011;1875;52.492;6.860;2024-03-25T01:22:11;16.75;;;2.78;;
3718;SDS011;1875;52.492;6.860;2024-03-25T01:24:38;16.80;;;2.45;;
3718;SDS011;1875;52.492;6.860;2024-03-25T01:27:04;17.52;;;2.88;;
3718;SDS011;1875;52.492;6.860;2024-03-25T01:29:31;18.38;;;3.85;;
3718;SDS011;1875;52.492;6.860;2024-03-25T01:31:56;9.43;;;2.67;;
3718;SDS011;1875;52.492;6.860;2024-03-25T01:34:24;14.93;;;3.08;;
3718;SDS011;1875;52.492;6.860;2024-03-25T01:36:52;21.13;;;3.70;;
3718;SDS011;1875;52.492;6.860;2024-03-25T01:39:19;8.60;;;2.38;;
3718;SDS011;1875;52.492;6.860;2024-03-25T01:41:45;9.95;;;2.45;;
3718;SDS011;1875;52.492;6.860;2024-03-25T01:44:11;14.40;;;2.90;;
3718;SDS011;1875;52.492;6.860;2024-03-25T01:46:37;16.08;;;3.67;;
3718;SDS011;1875;52.492;6.860;2024-03-25T01:49:05;14.60;;;2.78;;
3718;SDS011;1875;52.492;6.860;2024-03-25T01:51:31;16.00;;;2.97;;
3718;SDS011;1875;52.492;6.860;2024-03-25T01:54:00;9.10;;;2.38;;
3718;SDS011;1875;52.492;6.860;2024-03-25T01:56:26;11.00;;;2.58;;
3718;SDS011;1875;52.492;6.860;2024-03-25T01:58:53;10.35;;;2.38;;
3718;SDS011;1875;52.492;6.860;2024-03-25T02:01:19;18.17;;;3.38;;
3718;SDS011;1875;52.492;6.860;2024-03-25T02:03:46;13.55;;;2.63;;
3718;SDS011;1875;52.492;6.860;2024-03-25T02:06:13;12.10;;;2.20;;
3718;SDS011;1875;52.492;6.860;2024-03-25T02:08:42;20.73;;;4.18;;
3718;SDS011;1875;52.492;6.860;2024-03-25T02:11:09;13.85;;;4.18;;
3718;SDS011;1875;52.492;6.860;2024-03-25T02:13:37;12.57;;;2.20;;
3718;SDS011;1875;52.492;6.860;2024-03-25T02:16:04;13.40;;;2.83;;
3718;SDS011;1875;52.492;6.860;2024-03-25T02:18:32;6.65;;;1.73;;
3718;SDS011;1875;52.492;6.860;2024-03-25T02:20:58;11.23;;;2.88;;
3718;SDS011;1875;52.492;6.860;2024-03-25T02:23:25;9.48;;;2.20;;
3718;SDS011;1875;52.492;6.860;2024-03-25T02:25:53;19.35;;;2.53;;
3718;SDS011;1875;52.492;6.860;2024-03-25T02:28:20;13.55;;;2.42;;
3718;SDS011;1875;52.492;6.860;2024-03-25T02:30:46;17.60;;;2.13;;
3718;SDS011;1875;52.492;6.860;2024-03-25T02:33:13;18.05;;;3.40;;
3718;SDS011;1875;52.492;6.860;2024-03-25T02:35:40;7.60;;;2.10;;
3718;SDS011;1875;52.492;6.860;2024-03-25T02:38:07;12.25;;;2.00;;
3718;SDS011;1875;52.492;6.860;2024-03-25T02:40:34;11.45;;;1.80;;
3718;SDS011;1875;52.492;6.860;2024-03-25T02:43:02;10.82;;;2.25;;
3718;SDS011;1875;52.492;6.860;2024-03-25T02:45:29;7.85;;;2.58;;
3718;SDS011;1875;52.492;6.860;2024-03-25T02:47:56;14.35;;;2.42;;
3718;SDS011;1875;52.492;6.860;2024-03-25T02:50:21;7.72;;;1.95;;
3718;SDS011;1875;52.492;6.860;2024-03-25T02:52:48;19.20;;;3.28;;
3718;SDS011;1875;52.492;6.860;2024-03-25T02:55:14;8.50;;;2.60;;
3718;SDS011;1875;52.492;6.860;2024-03-25T02:57:41;13.18;;;4.32;;
3718;SDS011;1875;52.492;6.860;2024-03-25T03:00:09;13.40;;;2.05;;
3718;SDS011;1875;52.492;6.860;2024-03-25T03:02:36;15.43;;;2.47;;
3718;SDS011;1875;52.492;6.860;2024-03-25T03:05:03;6.70;;;2.28;;
3718;SDS011;1875;52.492;6.860;2024-03-25T03:07:30;11.43;;;3.08;;
3718;SDS011;1875;52.492;6.860;2024-03-25T03:09:56;11.30;;;2.63;;
3718;SDS011;1875;52.492;6.860;2024-03-25T03:12:23;13.52;;;2.45;;
3718;SDS011;1875;52.492;6.860;2024-03-25T03:14:48;9.10;;;3.03;;
3718;SDS011;1875;52.492;6.860;2024-03-25T03:17:17;10.45;;;3.95;;
3718;SDS011;1875;52.492;6.860;2024-03-25T03:19:43;12.95;;;3.65;;
3718;SDS011;1875;52.492;6.860;2024-03-25T03:22:09;14.45;;;2.75;;
3718;SDS011;1875;52.492;6.860;2024-03-25T03:24:35;5.03;;;1.88;;
3718;SDS011;1875;52.492;6.860;2024-03-25T03:27:02;9.98;;;1.98;;
3718;SDS011;1875;52.492;6.860;2024-03-25T03:29:28;7.90;;;1.85;;
3718;SDS011;1875;52.492;6.860;2024-03-25T03:31:55;11.50;;;2.10;;
3718;SDS011;1875;52.492;6.860;2024-03-25T03:34:22;13.98;;;2.53;;
3718;SDS011;1875;52.492;6.860;2024-03-25T03:36:49;10.35;;;1.92;;
3718;SDS011;1875;52.492;6.860;2024-03-25T03:39:15;17.83;;;3.03;;
3718;SDS011;1875;52.492;6.860;2024-03-25T03:41:43;14.45;;;3.30;;
3718;SDS011;1875;52.492;6.860;2024-03-25T03:44:08;15.85;;;3.33;;
3718;SDS011;1875;52.492;6.860;2024-03-25T03:46:35;14.82;;;1.67;;
3718;SDS011;1875;52.492;6.860;2024-03-25T03:49:01;11.60;;;3.28;;
3718;SDS011;1875;52.492;6.860;2024-03-25T03:51:30;11.65;;;3.22;;
3718;SDS011;1875;52.492;6.860;2024-03-25T03:53:55;23.15;;;3.38;;
3718;SDS011;1875;52.492;6.860;2024-03-25T03:56:22;25.35;;;3.70;;
3718;SDS011;1875;52.492;6.860;2024-03-25T03:58:48;16.45;;;4.15;;
3718;SDS011;1875;52.492;6.860;2024-03-25T04:01:15;15.48;;;2.30;;
3718;SDS011;1875;52.492;6.860;2024-03-25T04:03:41;17.17;;;2.67;;
3718;SDS011;1875;52.492;6.860;2024-03-25T04:06:09;32.75;;;3.67;;
3718;SDS011;1875;52.492;6.860;2024-03-25T04:08:37;11.63;;;2.90;;
3718;SDS011;1875;52.492;6.860;2024-03-25T04:11:04;12.70;;;2.47;;
3718;SDS011;1875;52.492;6.860;2024-03-25T04:13:31;14.80;;;3.70;;
3718;SDS011;1875;52.492;6.860;2024-03-25T04:16:03;19.88;;;3.38;;
3718;SDS011;1875;52.492;6.860;2024-03-25T04:18:30;10.98;;;3.10;;
3718;SDS011;1875;52.492;6.860;2024-03-25T04:20:57;11.60;;;2.67;;
3718;SDS011;1875;52.492;6.860;2024-03-25T04:23:23;12.93;;;3.03;;
3718;SDS011;1875;52.492;6.860;2024-03-25T04:25:52;19.80;;;3.92;;
3718;SDS011;1875;52.492;6.860;2024-03-25T04:28:18;19.85;;;3.70;;
3718;SDS011;1875;52.492;6.860;2024-03-25T04:30:50;22.85;;;3.13;;
3718;SDS011;1875;52.492;6.860;2024-03-25T04:33:16;26.15;;;3.65;;
3718;SDS011;1875;52.492;6.860;2024-03-25T04:35:44;15.20;;;2.75;;
3718;SDS011;1875;52.492;6.860;2024-03-25T04:38:10;12.10;;;2.80;;
3718;SDS011;1875;52.492;6.860;2024-03-25T04:40:36;16.52;;;3.00;;
3718;SDS011;1875;52.492;6.860;2024-03-25T04:43:04;11.38;;;2.45;;
3718;SDS011;1875;52.492;6.860;2024-03-25T04:45:31;13.02;;;2.28;;
3718;SDS011;1875;52.492;6.860;2024-03-25T04:47:57;12.60;;;3.35;;
3718;SDS011;1875;52.492;6.860;2024-03-25T04:50:23;9.95;;;2.83;;
3718;SDS011;1875;52.492;6.860;2024-03-25T04:52:49;17.83;;;2.28;;
3718;SDS011;1875;52.492;6.860;2024-03-25T04:55:15;11.85;;;1.95;;
3718;SDS011;1875;52.492;6.860;2024-03-25T04:57:41;11.27;;;2.53;;
3718;SDS011;1875;52.492;6.860;2024-03-25T05:00:09;12.93;;;3.72;;
3718;SDS011;1875;52.492;6.860;2024-03-25T05:05:02;11.27;;;2.50;;
3718;SDS011;1875;52.492;6.860;2024-03-25T05:07:28;12.88;;;2.65;;
3718;SDS011;1875;52.492;6.860;2024-03-25T05:09:54;11.45;;;2.28;;
3718;SDS011;1875;52.492;6.860;2024-03-25T05:12:20;18.63;;;3.50;;
3718;SDS011;1875;52.492;6.860;2024-03-25T05:14:46;18.55;;;3.75;;
3718;SDS011;1875;52.492;6.860;2024-03-25T05:17:13;12.02;;;2.47;;
3718;SDS011;1875;52.492;6.860;2024-03-25T05:19:39;8.77;;;2.88;;
3718;SDS011;1875;52.492;6.860;2024-03-25T05:22:05;13.65;;;3.20;;
3718;SDS011;1875;52.492;6.860;2024-03-25T05:24:31;12.55;;;2.78;;
3718;SDS011;1875;52.492;6.860;2024-03-25T05:26:57;13.57;;;2.55;;
3718;SDS011;1875;52.492;6.860;2024-03-25T05:29:23;16.10;;;3.15;;
3718;SDS011;1875;52.492;6.860;2024-03-25T05:31:56;10.45;;;3.47;;
3718;SDS011;1875;52.492;6.860;2024-03-25T05:34:24;12.02;;;3.10;;
3718;SDS011;1875;52.492;6.860;2024-03-25T05:36:50;8.13;;;2.95;;
3718;SDS011;1875;52.492;6.860;2024-03-25T05:39:16;14.73;;;1.95;;
3718;SDS011;1875;52.492;6.860;2024-03-25T05:41:42;13.93;;;3.33;;
3718;SDS011;1875;52.492;6.860;2024-03-25T05:44:08;14.20;;;4.28;;
3718;SDS011;1875;52.492;6.860;2024-03-25T05:46:34;14.38;;;3.90;;
3718;SDS011;1875;52.492;6.860;2024-03-25T05:49:03;23.92;;;3.55;;
3718;SDS011;1875;52.492;6.860;2024-03-25T05:51:31;20.58;;;3.45;;
3718;SDS011;1875;52.492;6.860;2024-03-25T05:53:57;9.27;;;3.05;;
3718;SDS011;1875;52.492;6.860;2024-03-25T05:56:23;20.90;;;4.70;;
3718;SDS011;1875;52.492;6.860;2024-03-25T05:58:49;12.20;;;3.45;;
3718;SDS011;1875;52.492;6.860;2024-03-25T06:01:15;24.45;;;3.53;;
3718;SDS011;1875;52.492;6.860;2024-03-25T06:03:41;13.27;;;2.95;;
3718;SDS011;1875;52.492;6.860;2024-03-25T06:06:07;13.38;;;4.25;;
3718;SDS011;1875;52.492;6.860;2024-03-25T06:08:34;11.20;;;2.95;;
3718;SDS011;1875;52.492;6.860;2024-03-25T06:11:00;16.77;;;3.45;;
3718;SDS011;1875;52.492;6.860;2024-03-25T06:13:26;20.90;;;5.15;;
3718;SDS011;1875;52.492;6.860;2024-03-25T06:15:53;16.83;;;3.55;;
3718;SDS011;1875;52.492;6.860;2024-03-25T06:18:19;7.50;;;2.55;;
3718;SDS011;1875;52.492;6.860;2024-03-25T06:20:45;25.42;;;4.15;;
3718;SDS011;1875;52.492;6.860;2024-03-25T06:23:11;19.88;;;4.47;;
3718;SDS011;1875;52.492;6.860;2024-03-25T06:25:48;15.50;;;3.72;;
3718;SDS011;1875;52.492;6.860;2024-03-25T06:28:15;10.55;;;3.78;;
3718;SDS011;1875;52.492;6.860;2024-03-25T06:30:41;15.35;;;3.72;;
3718;SDS011;1875;52.492;6.860;2024-03-25T06:33:25;15.45;;;2.90;;
3718;SDS011;1875;52.492;6.860;2024-03-25T06:36:10;15.85;;;3.45;;
3718;SDS011;1875;52.492;6.860;2024-03-25T06:38:35;15.13;;;3.25;;
3718;SDS011;1875;52.492;6.860;2024-03-25T06:41:03;21.83;;;2.78;;
3718;SDS011;1875;52.492;6.860;2024-03-25T06:43:29;20.80;;;3.60;;
3718;SDS011;1875;52.492;6.860;2024-03-25T06:45:55;20.48;;;3.42;;
3718;SDS011;1875;52.492;6.860;2024-03-25T06:48:21;16.98;;;3.92;;
3718;SDS011;1875;52.492;6.860;2024-03-25T06:50:53;12.65;;;2.83;;
3718;SDS011;1875;52.492;6.860;2024-03-25T06:53:20;19.80;;;3.55;;
3718;SDS011;1875;52.492;6.860;2024-03-25T06:55:53;13.10;;;3.35;;
3718;SDS011;1875;52.492;6.860;2024-03-25T06:58:21;20.17;;;2.85;;
3718;SDS011;1875;52.492;6.860;2024-03-25T07:00:48;16.10;;;2.78;;
3718;SDS011;1875;52.492;6.860;2024-03-25T07:03:14;17.65;;;3.47;;
3718;SDS011;1875;52.492;6.860;2024-03-25T07:05:40;9.27;;;2.53;;
3718;SDS011;1875;52.492;6.860;2024-03-25T07:08:06;13.85;;;3.90;;
3718;SDS011;1875;52.492;6.860;2024-03-25T07:10:33;16.58;;;2.95;;
3718;SDS011;1875;52.492;6.860;2024-03-25T07:12:59;11.70;;;2.95;;
3718;SDS011;1875;52.492;6.860;2024-03-25T07:15:26;15.88;;;2.45;;
3718;SDS011;1875;52.492;6.860;2024-03-25T07:17:52;17.17;;;2.67;;
3718;SDS011;1875;52.492;6.860;2024-03-25T07:20:18;13.70;;;3.22;;
3718;SDS011;1875;52.492;6.860;2024-03-25T07:22:45;30.77;;;5.35;;
3718;SDS011;1875;52.492;6.860;2024-03-25T07:25:11;17.83;;;3.17;;
3718;SDS011;1875;52.492;6.860;2024-03-25T07:27:37;12.35;;;3.05;;
3718;SDS011;1875;52.492;6.860;2024-03-25T07:30:03;14.55;;;3.63;;
3718;SDS011;1875;52.492;6.860;2024-03-25T07:32:31;20.63;;;4.15;;
3718;SDS011;1875;52.492;6.860;2024-03-25T07:34:57;25.67;;;5.28;;
3718;SDS011;1875;52.492;6.860;2024-03-25T07:37:23;19.10;;;4.38;;
3718;SDS011;1875;52.492;6.860;2024-03-25T07:39:49;13.45;;;3.03;;
3718;SDS011;1875;52.492;6.860;2024-03-25T07:42:15;12.48;;;3.85;;
3718;SDS011;1875;52.492;6.860;2024-03-25T07:44:41;20.27;;;5.20;;
3718;SDS011;1875;52.492;6.860;2024-03-25T07:47:07;16.45;;;3.75;;
3718;SDS011;1875;52.492;6.860;2024-03-25T07:49:34;14.07;;;3.67;;
3718;SDS011;1875;52.492;6.860;2024-03-25T07:52:00;15.38;;;3.35;;
3718;SDS011;1875;52.492;6.860;2024-03-25T07:54:26;23.13;;;5.25;;
3718;SDS011;1875;52.492;6.860;2024-03-25T07:56:52;16.73;;;4.20;;
3718;SDS011;1875;52.492;6.860;2024-03-25T07:59:18;18.58;;;3.65;;
3718;SDS011;1875;52.492;6.860;2024-03-25T08:01:44;20.92;;;3.55;;
3718;SDS011;1875;52.492;6.860;2024-03-25T08:04:10;19.85;;;3.45;;
3718;SDS011;1875;52.492;6.860;2024-03-25T08:06:38;9.75;;;3.88;;
3718;SDS011;1875;52.492;6.860;2024-03-25T08:09:04;9.63;;;2.75;;
3718;SDS011;1875;52.492;6.860;2024-03-25T08:11:30;13.45;;;3.35;;
3718;SDS011;1875;52.492;6.860;2024-03-25T08:13:56;10.48;;;3.55;;
3718;SDS011;1875;52.492;6.860;2024-03-25T08:16:22;12.90;;;3.08;;
3718;SDS011;1875;52.492;6.860;2024-03-25T08:18:48;23.08;;;3.42;;
3718;SDS011;1875;52.492;6.860;2024-03-25T08:21:14;14.50;;;4.25;;
3718;SDS011;1875;52.492;6.860;2024-03-25T08:23:44;15.50;;;3.75;;
3718;SDS011;1875;52.492;6.860;2024-03-25T08:26:10;17.27;;;3.63;;
3718;SDS011;1875;52.492;6.860;2024-03-25T08:28:36;29.15;;;4.38;;
3718;SDS011;1875;52.492;6.860;2024-03-25T08:31:02;18.73;;;4.32;;
3718;SDS011;1875;52.492;6.860;2024-03-25T08:33:28;18.45;;;3.90;;
3718;SDS011;1875;52.492;6.860;2024-03-25T08:35:54;13.35;;;2.95;;
3718;SDS011;1875;52.492;6.860;2024-03-25T08:38:20;18.73;;;3.50;;
3718;SDS011;1875;52.492;6.860;2024-03-25T08:40:47;15.75;;;3.28;;
3718;SDS011;1875;52.492;6.860;2024-03-25T08:43:13;15.40;;;3.70;;
3718;SDS011;1875;52.492;6.860;2024-03-25T08:45:39;9.00;;;2.38;;
3718;SDS011;1875;52.492;6.860;2024-03-25T08:48:06;11.18;;;3.13;;
3718;SDS011;1875;52.492;6.860;2024-03-25T08:50:32;15.40;;;3.30;;
3718;SDS011;1875;52.492;6.860;2024-03-25T08:52:58;15.70;;;3.50;;
3718;SDS011;1875;52.492;6.860;2024-03-25T08:55:24;16.00;;;2.90;;
3718;SDS011;1875;52.492;6.860;2024-03-25T08:57:51;21.50;;;2.85;;
3718;SDS011;1875;52.492;6.860;2024-03-25T09:00:17;13.30;;;2.58;;
3718;SDS011;1875;52.492;6.860;2024-03-25T09:02:43;11.20;;;2.92;;
3718;SDS011;1875;52.492;6.860;2024-03-25T09:05:09;13.30;;;2.47;;
3718;SDS011;1875;52.492;6.860;2024-03-25T09:07:36;6.28;;;2.17;;
3718;SDS011;1875;52.492;6.860;2024-03-25T09:10:02;15.45;;;3.10;;
3718;SDS011;1875;52.492;6.860;2024-03-25T09:12:46;12.73;;;2.72;;
3718;SDS011;1875;52.492;6.860;2024-03-25T09:15:13;13.32;;;2.95;;
3718;SDS011;1875;52.492;6.860;2024-03-25T09:17:40;14.25;;;2.80;;
3718;SDS011;1875;52.492;6.860;2024-03-25T09:20:06;8.05;;;2.05;;
3718;SDS011;1875;52.492;6.860;2024-03-25T09:22:33;18.58;;;3.75;;
3718;SDS011;1875;52.492;6.860;2024-03-25T09:24:59;11.02;;;2.05;;
3718;SDS011;1875;52.492;6.860;2024-03-25T09:27:25;9.32;;;2.75;;
3718;SDS011;1875;52.492;6.860;2024-03-25T09:29:51;13.68;;;2.80;;
3718;SDS011;1875;52.492;6.860;2024-03-25T09:32:18;12.63;;;2.38;;
3718;SDS011;1875;52.492;6.860;2024-03-25T09:34:44;12.52;;;2.78;;
3718;SDS011;1875;52.492;6.860;2024-03-25T09:37:10;8.25;;;2.20;;
3718;SDS011;1875;52.492;6.860;2024-03-25T09:39:37;14.80;;;2.92;;
3718;SDS011;1875;52.492;6.860;2024-03-25T09:42:03;10.00;;;2.83;;
3718;SDS011;1875;52.492;6.860;2024-03-25T09:44:33;17.50;;;2.90;;
3718;SDS011;1875;52.492;6.860;2024-03-25T09:47:00;11.13;;;2.45;;
3718;SDS011;1875;52.492;6.860;2024-03-25T09:49:28;14.52;;;2.20;;
3718;SDS011;1875;52.492;6.860;2024-03-25T09:51:54;11.30;;;2.25;;
3718;SDS011;1875;52.492;6.860;2024-03-25T09:54:20;12.57;;;2.42;;
3718;SDS011;1875;52.492;6.860;2024-03-25T09:56:46;13.70;;;2.85;;
3718;SDS011;1875;52.492;6.860;2024-03-25T09:59:14;12.90;;;2.25;;
3718;SDS011;1875;52.492;6.860;2024-03-25T10:01:40;13.10;;;2.75;;
3718;SDS011;1875;52.492;6.860;2024-03-25T10:04:07;8.25;;;1.52;;
3718;SDS011;1875;52.492;6.860;2024-03-25T10:06:35;7.35;;;1.92;;
3718;SDS011;1875;52.492;6.860;2024-03-25T10:09:04;8.43;;;1.77;;
3718;SDS011;1875;52.492;6.860;2024-03-25T10:11:30;5.10;;;1.00;;
3718;SDS011;1875;52.492;6.860;2024-03-25T10:13:56;6.70;;;1.70;;
3718;SDS011;1875;52.492;6.860;2024-03-25T10:16:22;18.08;;;2.33;;
3718;SDS011;1875;52.492;6.860;2024-03-25T10:18:48;7.07;;;1.73;;
3718;SDS011;1875;52.492;6.860;2024-03-25T10:21:14;10.52;;;2.10;;
3718;SDS011;1875;52.492;6.860;2024-03-25T10:23:43;6.65;;;1.65;;
3718;SDS011;1875;52.492;6.860;2024-03-25T10:26:09;4.30;;;0.98;;
3718;SDS011;1875;52.492;6.860;2024-03-25T10:28:35;5.47;;;1.42;;
3718;SDS011;1875;52.492;6.860;2024-03-25T10:31:04;5.82;;;2.38;;
3718;SDS011;1875;52.492;6.860;2024-03-25T10:35:56;3.88;;;1.33;;
3718;SDS011;1875;52.492;6.860;2024-03-25T10:38:23;7.28;;;1.48;;
3718;SDS011;1875;52.492;6.860;2024-03-25T10:40:51;7.25;;;1.92;;
3718;SDS011;1875;52.492;6.860;2024-03-25T10:43:20;9.20;;;1.13;;
3718;SDS011;1875;52.492;6.860;2024-03-25T10:45:47;4.55;;;1.58;;
3718;SDS011;1875;52.492;6.860;2024-03-25T10:48:15;5.18;;;1.65;;
3718;SDS011;1875;52.492;6.860;2024-03-25T10:50:41;8.15;;;1.05;;
3718;SDS011;1875;52.492;6.860;2024-03-25T10:53:08;9.40;;;1.90;;
3718;SDS011;1875;52.492;6.860;2024-03-25T10:55:36;7.07;;;1.50;;
3718;SDS011;1875;52.492;6.860;2024-03-25T10:58:04;12.63;;;2.05;;
3718;SDS011;1875;52.492;6.860;2024-03-25T11:00:30;7.25;;;1.50;;
3718;SDS011;1875;52.492;6.860;2024-03-25T11:02:56;5.50;;;1.38;;
3718;SDS011;1875;52.492;6.860;2024-03-25T11:05:23;5.03;;;1.45;;
3718;SDS011;1875;52.492;6.860;2024-03-25T11:07:51;9.15;;;1.58;;
3718;SDS011;1875;52.492;6.860;2024-03-25T11:10:17;3.42;;;0.80;;
3718;SDS011;1875;52.492;6.860;2024-03-25T11:12:43;6.78;;;1.02;;
3718;SDS011;1875;52.492;6.860;2024-03-25T11:15:11;6.38;;;0.93;;
3718;SDS011;1875;52.492;6.860;2024-03-25T11:17:37;6.18;;;1.20;;
3718;SDS011;1875;52.492;6.860;2024-03-25T11:20:15;2.65;;;1.00;;
3718;SDS011;1875;52.492;6.860;2024-03-25T11:22:48;7.95;;;1.60;;
3718;SDS011;1875;52.492;6.860;2024-03-25T11:25:14;4.82;;;1.00;;
3718;SDS011;1875;52.492;6.860;2024-03-25T11:27:42;6.20;;;1.60;;
3718;SDS011;1875;52.492;6.860;2024-03-25T11:30:10;5.10;;;0.98;;
3718;SDS011;1875;52.492;6.860;2024-03-25T11:32:43;11.73;;;1.75;;
3718;SDS011;1875;52.492;6.860;2024-03-25T11:35:10;8.20;;;1.58;;
3718;SDS011;1875;52.492;6.860;2024-03-25T11:37:39;8.63;;;1.88;;
3718;SDS011;1875;52.492;6.860;2024-03-25T11:40:06;7.10;;;0.93;;
3718;SDS011;1875;52.492;6.860;2024-03-25T11:42:33;10.68;;;1.25;;
3718;SDS011;1875;52.492;6.860;2024-03-25T11:44:59;5.88;;;1.38;;
3718;SDS011;1875;52.492;6.860;2024-03-25T11:47:27;3.83;;;0.85;;
3718;SDS011;1875;52.492;6.860;2024-03-25T11:49:53;7.22;;;1.10;;
3718;SDS011;1875;52.492;6.860;2024-03-25T11:52:19;9.30;;;1.40;;
3718;SDS011;1875;52.492;6.860;2024-03-25T11:54:53;4.90;;;1.02;;
3718;SDS011;1875;52.492;6.860;2024-03-25T11:57:19;5.47;;;1.10;;
3718;SDS011;1875;52.492;6.860;2024-03-25T11:59:45;7.13;;;1.30;;
3718;SDS011;1875;52.492;6.860;2024-03-25T12:02:12;9.05;;;1.42;;
3718;SDS011;1875;52.492;6.860;2024-03-25T12:04:41;8.40;;;1.67;;
3718;SDS011;1875;52.492;6.860;2024-03-25T12:07:09;5.45;;;1.58;;
3718;SDS011;1875;52.492;6.860;2024-03-25T12:09:36;8.63;;;1.55;;
3718;SDS011;1875;52.492;6.860;2024-03-25T12:12:21;5.20;;;1.73;;
3718;SDS011;1875;52.492;6.860;2024-03-25T12:14:47;5.82;;;1.30;;
3718;SDS011;1875;52.492;6.860;2024-03-25T12:17:13;10.55;;;2.53;;
3718;SDS011;1875;52.492;6.860;2024-03-25T12:19:45;10.57;;;1.60;;
3718;SDS011;1875;52.492;6.860;2024-03-25T12:22:11;6.35;;;1.23;;
3718;SDS011;1875;52.492;6.860;2024-03-25T12:24:38;4.30;;;0.95;;
3718;SDS011;1875;52.492;6.860;2024-03-25T12:27:04;5.93;;;1.27;;
3718;SDS011;1875;52.492;6.860;2024-03-25T12:29:31;4.13;;;1.05;;
3718;SDS011;1875;52.492;6.860;2024-03-25T12:31:57;5.50;;;1.55;;
3718;SDS011;1875;52.492;6.860;2024-03-25T12:34:24;5.82;;;1.77;;
3718;SDS011;1875;52.492;6.860;2024-03-25T12:37:00;11.45;;;2.25;;
3718;SDS011;1875;52.492;6.860;2024-03-25T12:39:26;4.95;;;1.45;;
3718;SDS011;1875;52.492;6.860;2024-03-25T12:41:52;5.40;;;1.40;;
3718;SDS011;1875;52.492;6.860;2024-03-25T12:44:18;6.53;;;1.80;;
3718;SDS011;1875;52.492;6.860;2024-03-25T12:46:45;7.53;;;1.67;;
3718;SDS011;1875;52.492;6.860;2024-03-25T12:49:11;5.13;;;1.40;;
3718;SDS011;1875;52.492;6.860;2024-03-25T12:51:37;9.90;;;1.65;;
3718;SDS011;1875;52.492;6.860;2024-03-25T12:54:05;7.63;;;1.73;;
3718;SDS011;1875;52.492;6.860;2024-03-25T12:56:31;5.63;;;1.50;;
3718;SDS011;1875;52.492;6.860;2024-03-25T12:58:57;4.28;;;1.20;;
3718;SDS011;1875;52.492;6.860;2024-03-25T13:01:22;8.95;;;2.03;;
3718;SDS011;1875;52.492;6.860;2024-03-25T13:03:48;5.25;;;1.23;;
3718;SDS011;1875;52.492;6.860;2024-03-25T13:06:14;6.25;;;1.92;;
3718;SDS011;1875;52.492;6.860;2024-03-25T13:08:40;10.75;;;3.38;;
3718;SDS011;1875;52.492;6.860;2024-03-25T13:11:08;5.93;;;2.15;;
3718;SDS011;1875;52.492;6.860;2024-03-25T13:13:34;6.65;;;1.42;;
3718;SDS011;1875;52.492;6.860;2024-03-25T13:16:00;2.90;;;1.20;;
3718;SDS011;1875;52.492;6.860;2024-03-25T13:18:26;5.97;;;1.17;;
3718;SDS011;1875;52.492;6.860;2024-03-25T13:20:52;4.40;;;1.17;;
3718;SDS011;1875;52.492;6.860;2024-03-25T13:23:17;8.27;;;1.70;;
3718;SDS011;1875;52.492;6.860;2024-03-25T13:25:43;5.18;;;1.30;;
3718;SDS011;1875;52.492;6.860;2024-03-25T13:28:11;13.05;;;2.85;;
3718;SDS011;1875;52.492;6.860;2024-03-25T13:30:37;5.13;;;1.33;;
3718;SDS011;1875;52.492;6.860;2024-03-25T13:33:03;4.78;;;1.20;;
3718;SDS011;1875;52.492;6.860;2024-03-25T13:35:29;5.22;;;1.33;;
3718;SDS011;1875;52.492;6.860;2024-03-25T13:37:55;8.77;;;1.75;;
3718;SDS011;1875;52.492;6.860;2024-03-25T13:40:21;5.65;;;1.33;;
3718;SDS011;1875;52.492;6.860;2024-03-25T13:42:47;6.35;;;1.38;;
3718;SDS011;1875;52.492;6.860;2024-03-25T13:45:14;10.05;;;3.45;;
3718;SDS011;1875;52.492;6.860;2024-03-25T13:47:40;9.60;;;2.20;;
3718;SDS011;1875;52.492;6.860;2024-03-25T13:50:06;27.77;;;4.90;;
3718;SDS011;1875;52.492;6.860;2024-03-25T13:52:33;5.30;;;1.42;;
3718;SDS011;1875;52.492;6.860;2024-03-25T13:54:59;16.70;;;4.28;;
3718;SDS011;1875;52.492;6.860;2024-03-25T13:57:25;5.63;;;1.38;;
3718;SDS011;1875;52.492;6.860;2024-03-25T13:59:51;5.45;;;1.38;;
3718;SDS011;1875;52.492;6.860;2024-03-25T14:02:18;7.60;;;2.80;;
3718;SDS011;1875;52.492;6.860;2024-03-25T14:04:44;5.90;;;1.58;;
3718;SDS011;1875;52.492;6.860;2024-03-25T14:07:10;5.85;;;1.30;;
3718;SDS011;1875;52.492;6.860;2024-03-25T14:09:36;3.83;;;0.95;;
3718;SDS011;1875;52.492;6.860;2024-03-25T14:12:02;4.18;;;1.00;;
3718;SDS011;1875;52.492;6.860;2024-03-25T14:14:29;5.82;;;1.35;;
3718;SDS011;1875;52.492;6.860;2024-03-25T14:16:55;5.00;;;1.25;;
3718;SDS011;1875;52.492;6.860;2024-03-25T14:19:22;4.47;;;1.08;;
3718;SDS011;1875;52.492;6.860;2024-03-25T14:21:48;7.20;;;1.50;;
3718;SDS011;1875;52.492;6.860;2024-03-25T14:24:14;3.65;;;1.30;;
3718;SDS011;1875;52.492;6.860;2024-03-25T14:26:40;7.28;;;1.20;;
3718;SDS011;1875;52.492;6.860;2024-03-25T14:29:06;5.57;;;1.30;;
3718;SDS011;1875;52.492;6.860;2024-03-25T14:31:32;3.17;;;0.85;;
3718;SDS011;1875;52.492;6.860;2024-03-25T14:33:58;2.78;;;0.93;;
3718;SDS011;1875;52.492;6.860;2024-03-25T14:36:25;2.83;;;0.60;;
3718;SDS011;1875;52.492;6.860;2024-03-25T14:38:51;2.22;;;0.70;;
3718;SDS011;1875;52.492;6.860;2024-03-25T14:41:18;3.10;;;1.35;;
3718;SDS011;1875;52.492;6.860;2024-03-25T14:43:45;5.82;;;1.00;;
3718;SDS011;1875;52.492;6.860;2024-03-25T14:46:11;3.85;;;1.00;;
3718;SDS011;1875;52.492;6.860;2024-03-25T14:48:37;5.18;;;1.05;;
3718;SDS011;1875;52.492;6.860;2024-03-25T14:51:03;3.58;;;1.00;;
3718;SDS011;1875;52.492;6.860;2024-03-25T14:53:31;4.47;;;1.00;;
3718;SDS011;1875;52.492;6.860;2024-03-25T14:55:56;7.78;;;1.27;;
3718;SDS011;1875;52.492;6.860;2024-03-25T14:58:22;4.95;;;1.17;;
3718;SDS011;1875;52.492;6.860;2024-03-25T15:00:48;3.13;;;0.95;;
3718;SDS011;1875;52.492;6.860;2024-03-25T15:03:14;3.90;;;1.20;;
3718;SDS011;1875;52.492;6.860;2024-03-25T15:05:40;6.07;;;1.20;;
3718;SDS011;1875;52.492;6.860;2024-03-25T15:08:06;5.13;;;1.33;;
3718;SDS011;1875;52.492;6.860;2024-03-25T15:10:34;3.67;;;1.10;;